Time;durP1;ratioP1;P1;durP2;ratioP2;P2;SDS_P1;SDS_P2;PMS_P1;PMS_P2;Temp;Humidity;BMP_temperature;BMP_pressure;BME280_temperature;BME280_humidity;BME280_pressure;Samples;Min_cycle;Max_cycle;Signal;HPM_P1;HPM_P2
2022/05/16 00:00:37;;;;;;;2.92;1.50;;;19.50;99.90;;;;;;6092719;23;20338;-81
2022/05/16 00:03:04;;;;;;;3.65;1.23;;;19.50;99.90;;;;;;6092867;23;20097;-81
2022/05/16 00:05:31;;;;;;;5.40;1.70;;;19.50;99.90;;;;;;6067076;23;20077;-81
2022/05/16 00:07:56;;;;;;;2.45;1.17;;;19.50;99.90;;;;;;6067077;23;20411;-81
2022/05/16 00:10:23;;;;;;;2.60;1.25;;;19.50;99.90;;;;;;6092918;23;20141;-81
2022/05/16 00:12:49;;;;;;;1.80;1.25;;;19.50;99.90;;;;;;6067011;23;20098;-81
2022/05/16 00:15:16;;;;;;;4.57;1.40;;;19.40;99.90;;;;;;6092621;23;20034;-81
2022/05/16 00:17:42;;;;;;;4.07;1.50;;;19.50;99.90;;;;;;6092589;23;20418;-81
2022/05/16 00:20:09;;;;;;;4.03;1.33;;;19.50;99.90;;;;;;6066909;23;20021;-81
2022/05/16 00:22:35;;;;;;;2.63;1.20;;;19.40;99.90;;;;;;6066971;23;20427;-81
2022/05/16 00:25:04;;;;;;;3.08;1.20;;;19.40;99.90;;;;;;6092604;23;20006;-81
2022/05/16 00:27:34;;;;;;;2.20;1.20;;;19.50;99.90;;;;;;6093759;23;20014;-81
2022/05/16 00:30:04;;;;;;;4.40;1.02;;;19.50;99.90;;;;;;6068208;23;20018;-81
2022/05/16 00:32:29;;;;;;;2.80;1.17;;;19.40;99.90;;;;;;6094171;23;20003;-81
2022/05/16 00:34:55;;;;;;;6.93;1.58;;;19.40;99.90;;;;;;6068230;23;20002;-81
2022/05/16 00:37:20;;;;;;;5.20;1.23;;;19.40;99.90;;;;;;6068191;23;20051;-81
2022/05/16 00:39:46;;;;;;;4.50;1.50;;;19.40;99.90;;;;;;6093765;23;20129;-81
2022/05/16 00:42:12;;;;;;;1.98;1.17;;;19.40;99.90;;;;;;6068294;23;20010;-81
2022/05/16 00:44:38;;;;;;;1.48;1.00;;;19.40;99.90;;;;;;6093620;23;20449;-81
2022/05/16 00:47:05;;;;;;;2.65;1.40;;;19.30;99.90;;;;;;6068143;23;20011;-81
2022/05/16 00:49:35;;;;;;;2.17;1.20;;;19.30;99.90;;;;;;6068058;23;20007;-81
2022/05/16 00:52:30;;;;;;;5.90;1.45;;;19.30;99.90;;;;;;6093645;23;20003;-81
2022/05/16 00:55:10;;;;;;;6.82;1.58;;;19.30;99.90;;;;;;6067916;23;20005;-81
2022/05/16 00:57:43;;;;;;;6.75;1.50;;;19.30;99.90;;;;;;6093424;23;20010;-81
2022/05/16 01:00:21;;;;;;;2.10;1.20;;;19.30;99.90;;;;;;6068158;23;20007;-81
2022/05/16 01:05:47;;;;;;;2.13;1.30;;;19.30;99.90;;;;;;6093703;23;20017;-81
2022/05/16 01:08:18;;;;;;;4.15;1.20;;;19.30;99.90;;;;;;6093523;23;20006;-81
2022/05/16 01:10:44;;;;;;;4.30;1.30;;;19.30;99.90;;;;;;6093570;23;20003;-81
2022/05/16 01:13:10;;;;;;;2.58;1.27;;;19.30;99.90;;;;;;6068334;23;20037;-81
2022/05/16 01:15:44;;;;;;;3.05;1.10;;;19.20;99.90;;;;;;6093607;23;20073;-81
2022/05/16 01:18:16;;;;;;;5.07;1.52;;;19.20;99.90;;;;;;6093662;23;20095;-81
2022/05/16 01:20:50;;;;;;;3.78;1.42;;;19.20;99.90;;;;;;6093889;23;20003;-81
2022/05/16 01:23:19;;;;;;;5.78;1.35;;;19.20;99.90;;;;;;6068116;23;20338;-81
2022/05/16 01:25:45;;;;;;;4.75;1.42;;;19.20;99.90;;;;;;6093843;23;20022;-81
2022/05/16 01:28:10;;;;;;;1.88;1.10;;;19.20;99.90;;;;;;6068021;23;20014;-80
2022/05/16 01:30:41;;;;;;;4.30;1.60;;;19.20;99.90;;;;;;6068029;23;20089;-81
2022/05/16 01:33:07;;;;;;;3.90;1.40;;;19.20;99.90;;;;;;6068100;23;20010;-81
2022/05/16 01:35:33;;;;;;;3.63;1.40;;;19.20;99.90;;;;;;6093558;23;19998;-81
2022/05/16 01:40:48;;;;;;;3.30;1.40;;;19.20;99.90;;;;;;6093895;23;20017;-81
2022/05/16 01:43:14;;;;;;;4.93;1.25;;;19.20;99.90;;;;;;6093827;23;20006;-81
2022/05/16 01:45:42;;;;;;;1.60;1.30;;;19.10;99.90;;;;;;6067824;23;20573;-81
2022/05/16 01:48:09;;;;;;;2.67;1.30;;;19.20;99.90;;;;;;6093329;23;20003;-81
2022/05/16 01:50:35;;;;;;;1.75;1.00;;;19.10;99.90;;;;;;6093303;23;20050;-81
2022/05/16 01:53:00;;;;;;;3.58;1.17;;;19.10;99.90;;;;;;6067805;23;20132;-81
2022/05/16 01:55:26;;;;;;;4.13;1.30;;;19.10;99.90;;;;;;6067859;23;20007;-81
2022/05/16 01:57:52;;;;;;;5.07;1.30;;;19.10;99.90;;;;;;6067771;23;20025;-81
2022/05/16 02:00:18;;;;;;;4.75;1.40;;;19.10;99.90;;;;;;6093384;23;20030;-81
2022/05/16 02:02:44;;;;;;;4.60;1.48;;;19.10;99.90;;;;;;6093459;23;20006;-81
2022/05/16 02:05:13;;;;;;;8.05;1.25;;;19.10;99.90;;;;;;6093432;23;20029;-81
2022/05/16 02:07:39;;;;;;;3.92;1.05;;;19.10;99.90;;;;;;6093759;23;20441;-81
2022/05/16 02:10:06;;;;;;;3.15;1.30;;;19.10;99.90;;;;;;6067788;23;20002;-81
2022/05/16 02:12:33;;;;;;;3.30;1.35;;;19.00;99.90;;;;;;6067877;23;20077;-81
2022/05/16 02:14:59;;;;;;;5.32;1.23;;;19.10;99.90;;;;;;6067866;23;20377;-81
2022/05/16 02:17:24;;;;;;;6.60;1.40;;;19.00;99.90;;;;;;6093704;23;19999;-80
2022/05/16 02:19:50;;;;;;;4.07;1.48;;;19.00;99.90;;;;;;6067819;23;20010;-81
2022/05/16 02:25:00;;;;;;;4.78;1.30;;;19.00;99.90;;;;;;6093467;23;20045;-81
2022/05/16 02:27:26;;;;;;;3.03;1.38;;;19.00;99.90;;;;;;6093643;23;20006;-81
2022/05/16 02:29:51;;;;;;;3.78;1.30;;;19.00;99.90;;;;;;6067763;23;20346;-80
2022/05/16 02:32:17;;;;;;;2.08;1.13;;;19.00;99.90;;;;;;6067700;23;20032;-81
2022/05/16 02:34:44;;;;;;;4.63;1.40;;;19.00;99.90;;;;;;6093382;23;20006;-81
2022/05/16 02:37:11;;;;;;;2.60;1.52;;;19.00;99.90;;;;;;6093292;23;20002;-81
2022/05/16 02:39:37;;;;;;;5.55;1.33;;;18.90;99.90;;;;;;6067609;23;20426;-81
2022/05/16 02:42:03;;;;;;;2.53;1.52;;;19.00;99.90;;;;;;6067663;23;20010;-80
2022/05/16 02:44:29;;;;;;;5.97;1.55;;;18.90;99.90;;;;;;6093218;23;20003;-80
2022/05/16 02:46:55;;;;;;;2.92;1.38;;;18.90;99.90;;;;;;6067730;23;20316;-81
2022/05/16 02:49:21;;;;;;;5.00;1.38;;;19.00;99.90;;;;;;6092673;23;20415;-81
2022/05/16 02:51:47;;;;;;;3.10;1.40;;;18.90;99.90;;;;;;6093501;23;20415;-81
2022/05/16 02:54:13;;;;;;;3.80;1.30;;;18.90;99.90;;;;;;6067529;23;20002;-81
2022/05/16 02:56:38;;;;;;;5.18;1.50;;;18.90;99.90;;;;;;6092982;23;20089;-80
2022/05/16 02:59:04;;;;;;;3.75;1.45;;;18.90;99.90;;;;;;6093230;23;20357;-80
2022/05/16 03:01:34;;;;;;;2.22;1.20;;;18.90;99.90;;;;;;6067593;23;20426;-80
2022/05/16 03:04:00;;;;;;;2.60;1.20;;;18.90;99.90;;;;;;6067513;23;20020;-81
2022/05/16 03:06:26;;;;;;;3.10;1.38;;;18.90;99.90;;;;;;6067475;23;20014;-80
2022/05/16 03:08:51;;;;;;;2.97;1.15;;;18.90;99.90;;;;;;6092928;23;20006;-80
2022/05/16 03:11:17;;;;;;;2.67;1.25;;;18.90;99.90;;;;;;6067634;23;20014;-80
2022/05/16 03:13:42;;;;;;;4.55;1.60;;;18.90;99.90;;;;;;6093257;23;19999;-80
2022/05/16 03:16:08;;;;;;;3.08;1.40;;;18.90;99.90;;;;;;6067615;23;20093;-80
2022/05/16 03:18:34;;;;;;;2.15;1.40;;;18.90;99.90;;;;;;6093087;23;20006;-80
2022/05/16 03:20:59;;;;;;;3.28;1.40;;;18.90;99.90;;;;;;6093720;23;20399;-80
2022/05/16 03:23:25;;;;;;;1.85;1.25;;;18.80;99.90;;;;;;6067516;23;20012;-80
2022/05/16 03:25:52;;;;;;;3.83;1.25;;;18.80;99.90;;;;;;6093311;23;20002;-80
2022/05/16 03:28:18;;;;;;;4.82;1.30;;;18.90;99.90;;;;;;6092794;23;20006;-81
2022/05/16 03:30:43;;;;;;;4.95;1.60;;;18.80;99.90;;;;;;6092983;23;20006;-80
2022/05/16 03:33:11;;;;;;;2.33;1.50;;;18.80;99.90;;;;;;6093248;23;19998;-81
2022/05/16 03:35:37;;;;;;;5.28;1.50;;;18.80;99.90;;;;;;6067427;23;20004;-81
2022/05/16 03:38:03;;;;;;;3.83;1.30;;;18.90;99.90;;;;;;6067348;23;20010;-81
2022/05/16 03:40:45;;;;;;;4.95;1.60;;;18.90;99.90;;;;;;6092839;23;20342;-81
2022/05/16 03:43:13;;;;;;;3.63;1.92;;;18.80;99.90;;;;;;6093208;23;20014;-81
2022/05/16 03:45:40;;;;;;;1.85;1.25;;;18.80;99.90;;;;;;6067291;23;20454;-81
2022/05/16 03:48:06;;;;;;;4.53;1.55;;;18.80;99.90;;;;;;6092658;23;20521;-81
2022/05/16 03:50:32;;;;;;;7.20;1.50;;;18.80;99.90;;;;;;6092916;23;20003;-81
2022/05/16 03:52:59;;;;;;;4.25;1.60;;;18.80;99.90;;;;;;6092747;23;20009;-80
2022/05/16 03:55:27;;;;;;;2.83;1.50;;;18.80;99.90;;;;;;6067126;23;20185;-80
2022/05/16 03:57:53;;;;;;;3.95;1.38;;;18.80;99.90;;;;;;6092727;23;20011;-81
2022/05/16 04:00:19;;;;;;;3.95;1.67;;;18.80;99.90;;;;;;6093058;23;20007;-81
2022/05/16 04:02:45;;;;;;;7.03;1.70;;;18.80;99.90;;;;;;6093700;23;20025;-80
2022/05/16 04:05:18;;;;;;;2.58;1.27;;;18.80;99.90;;;;;;6068346;23;20034;-81
2022/05/16 04:07:45;;;;;;;2.83;1.38;;;18.80;99.90;;;;;;6094077;23;20017;-81
2022/05/16 04:10:11;;;;;;;5.35;1.42;;;18.80;99.90;;;;;;6068242;23;20003;-80
2022/05/16 04:12:37;;;;;;;3.28;1.52;;;18.70;99.90;;;;;;6093715;23;20513;-81
2022/05/16 04:15:03;;;;;;;2.70;1.55;;;18.70;99.90;;;;;;6094112;23;20003;-80
2022/05/16 04:17:29;;;;;;;2.72;1.45;;;18.70;99.90;;;;;;6068264;23;20009;-81
2022/05/16 04:19:55;;;;;;;6.07;1.60;;;18.70;99.90;;;;;;6093741;23;20335;-81
2022/05/16 04:22:21;;;;;;;2.00;1.40;;;18.70;99.90;;;;;;6068468;23;20040;-81
2022/05/16 04:24:46;;;;;;;2.65;1.50;;;18.70;99.90;;;;;;6094003;23;20017;-81
2022/05/16 04:27:12;;;;;;;5.93;1.75;;;18.70;99.90;;;;;;6093666;23;20002;-80
2022/05/16 04:29:38;;;;;;;6.20;1.65;;;18.70;99.90;;;;;;6068209;23;20010;-80
2022/05/16 04:32:04;;;;;;;3.03;1.63;;;18.70;99.90;;;;;;6068303;23;20327;-81
2022/05/16 04:34:29;;;;;;;3.35;1.58;;;18.70;99.90;;;;;;6093608;23;19999;-80
2022/05/16 04:36:55;;;;;;;2.97;1.50;;;18.70;99.90;;;;;;6068279;23;20003;-80
2022/05/16 04:39:21;;;;;;;4.28;1.27;;;18.70;99.90;;;;;;6093930;23;20335;-81
2022/05/16 04:44:36;;;;;;;3.67;1.60;;;18.70;99.90;;;;;;6093728;23;20018;-80
2022/05/16 04:47:06;;;;;;;9.00;1.90;;;18.70;99.90;;;;;;6068412;23;20002;-81
2022/05/16 04:49:31;;;;;;;4.82;1.50;;;18.70;99.90;;;;;;6067952;23;20136;-80
2022/05/16 04:51:58;;;;;;;4.53;1.55;;;18.70;99.90;;;;;;6093637;23;20068;-81
2022/05/16 04:54:24;;;;;;;3.53;1.60;;;18.70;99.90;;;;;;6093819;23;20327;-80
2022/05/16 04:56:51;;;;;;;2.95;1.60;;;18.70;99.90;;;;;;6093362;23;20435;-81
2022/05/16 04:59:17;;;;;;;4.57;1.40;;;18.70;99.90;;;;;;6068098;23;20049;-80
2022/05/16 05:01:43;;;;;;;3.47;1.73;;;18.70;99.90;;;;;;6093614;23;20029;-80
2022/05/16 05:04:09;;;;;;;2.75;1.40;;;18.70;99.90;;;;;;6093569;23;20006;-80
2022/05/16 05:06:35;;;;;;;2.83;1.60;;;18.70;99.90;;;;;;6068090;23;20033;-80
2022/05/16 05:09:00;;;;;;;3.60;1.63;;;18.70;99.90;;;;;;6067984;23;20017;-80
2022/05/16 05:16:55;;;;;;;3.75;1.50;;;18.70;99.90;;;;;;6093949;23;19946;-80
2022/05/16 05:19:21;;;;;;;2.47;1.48;;;18.70;99.90;;;;;;6068028;23;20014;-80
2022/05/16 05:21:47;;;;;;;3.22;1.63;;;18.70;99.90;;;;;;6093550;23;20014;-80
2022/05/16 05:24:13;;;;;;;5.25;1.50;;;18.70;99.90;;;;;;6068094;23;20011;-81
2022/05/16 05:26:39;;;;;;;3.45;1.70;;;18.70;99.90;;;;;;6093510;23;20026;-80
2022/05/16 05:29:05;;;;;;;2.88;1.88;;;18.70;99.90;;;;;;6067925;23;20465;-80
2022/05/16 05:31:31;;;;;;;3.75;1.40;;;18.70;99.90;;;;;;6094121;23;20006;-80
2022/05/16 05:33:57;;;;;;;2.33;1.40;;;18.70;99.90;;;;;;6067951;23;20002;-80
2022/05/16 05:36:25;;;;;;;4.97;1.65;;;18.70;99.90;;;;;;6067956;23;20009;-80
2022/05/16 05:38:51;;;;;;;4.38;1.80;;;18.70;99.90;;;;;;6068013;23;20034;-80
2022/05/16 05:41:20;;;;;;;3.92;1.63;;;18.70;99.90;;;;;;6067860;23;20007;-81
2022/05/16 05:43:46;;;;;;;3.97;1.70;;;18.70;99.90;;;;;;6093516;23;20403;-81
2022/05/16 05:46:12;;;;;;;5.03;1.60;;;18.70;99.90;;;;;;6093495;23;20012;-81
2022/05/16 05:48:38;;;;;;;3.70;1.60;;;18.70;99.90;;;;;;6067804;23;20006;-81
2022/05/16 05:51:05;;;;;;;5.43;1.60;;;18.70;99.90;;;;;;6067964;23;20038;-80
2022/05/16 05:53:31;;;;;;;3.70;1.30;;;18.70;99.90;;;;;;6093722;23;20077;-81
2022/05/16 05:55:56;;;;;;;4.70;1.63;;;18.70;99.90;;;;;;6093273;23;20040;-80
2022/05/16 05:58:22;;;;;;;2.92;1.33;;;18.80;99.90;;;;;;6093512;23;20006;-81
2022/05/16 06:00:48;;;;;;;3.60;1.60;;;18.80;99.90;;;;;;6067875;23;20444;-80
2022/05/16 06:03:14;;;;;;;3.97;1.85;;;18.80;99.90;;;;;;6067791;23;20086;-80
2022/05/16 06:05:40;;;;;;;3.75;1.58;;;18.80;99.90;;;;;;6067906;23;20060;-81
2022/05/16 06:08:06;;;;;;;2.58;1.50;;;18.80;99.90;;;;;;6093378;23;20009;-81
2022/05/16 06:10:31;;;;;;;4.65;1.75;;;18.80;99.90;;;;;;6067692;23;20043;-81
2022/05/16 06:12:57;;;;;;;3.47;1.50;;;18.80;99.90;;;;;;6067831;23;20007;-80
2022/05/16 06:15:23;;;;;;;2.20;1.55;;;18.80;99.90;;;;;;6067861;23;20434;-81
2022/05/16 06:17:49;;;;;;;3.20;1.60;;;18.80;99.90;;;;;;6067713;23;20055;-81
2022/05/16 06:20:15;;;;;;;4.13;1.90;;;18.90;99.90;;;;;;6093238;23;20081;-81
2022/05/16 06:22:41;;;;;;;2.08;1.40;;;18.90;99.90;;;;;;6093328;23;20377;-81
2022/05/16 06:27:55;;;;;;;6.00;1.70;;;19.00;99.90;;;;;;6093742;23;20013;-81
2022/05/16 06:30:22;;;;;;;2.97;1.60;;;19.00;99.90;;;;;;6093220;23;20002;-81
2022/05/16 06:32:48;;;;;;;2.30;1.52;;;19.00;99.90;;;;;;6093435;23;20431;-80
2022/05/16 06:35:15;;;;;;;3.35;1.50;;;19.00;99.90;;;;;;6068105;23;20021;-81
2022/05/16 06:37:41;;;;;;;2.90;1.60;;;19.10;99.90;;;;;;6068231;23;20002;-82
2022/05/16 06:40:07;;;;;;;2.88;1.60;;;19.10;99.90;;;;;;6069016;23;20013;-81
2022/05/16 06:42:33;;;;;;;2.58;1.90;;;19.10;99.90;;;;;;6068000;23;20002;-80
2022/05/16 06:44:58;;;;;;;1.98;1.55;;;19.10;99.90;;;;;;6093652;23;20072;-81
2022/05/16 06:47:24;;;;;;;3.95;1.70;;;19.20;99.90;;;;;;6093692;23;20082;-82
2022/05/16 06:49:51;;;;;;;4.03;1.80;;;19.20;99.90;;;;;;6067656;23;20033;-81
2022/05/16 06:52:17;;;;;;;3.53;2.03;;;19.20;99.90;;;;;;6067745;23;20002;-81
2022/05/16 06:54:44;;;;;;;3.20;1.75;;;19.20;99.90;;;;;;6093175;23;20006;-81
2022/05/16 06:57:10;;;;;;;2.45;1.83;;;19.20;99.90;;;;;;6093089;23;20015;-81
2022/05/16 06:59:35;;;;;;;3.22;1.88;;;19.20;99.90;;;;;;6067654;23;20010;-81
2022/05/16 07:02:02;;;;;;;2.90;1.90;;;19.20;99.90;;;;;;6067607;23;20006;-81
2022/05/16 07:04:28;;;;;;;4.70;1.88;;;19.20;99.90;;;;;;6093082;23;20370;-80
2022/05/16 07:06:53;;;;;;;3.60;2.13;;;19.20;99.90;;;;;;6067693;23;20024;-83
2022/05/16 07:09:19;;;;;;;3.00;2.03;;;19.20;99.90;;;;;;6093110;23;20007;-81
2022/05/16 07:11:45;;;;;;;3.42;1.80;;;19.20;99.90;;;;;;6067642;23;20006;-82
2022/05/16 07:14:10;;;;;;;5.28;1.98;;;19.20;99.90;;;;;;6093113;23;20026;-81
2022/05/16 07:16:36;;;;;;;5.97;2.33;;;19.20;99.90;;;;;;6067646;23;20013;-81
2022/05/16 07:19:02;;;;;;;3.45;1.95;;;19.20;99.90;;;;;;6067642;23;20446;-81
2022/05/16 07:21:28;;;;;;;3.13;2.08;;;19.20;99.90;;;;;;6093031;23;20368;-81
2022/05/16 07:23:54;;;;;;;5.60;2.45;;;19.20;99.90;;;;;;6093051;23;20037;-81
2022/05/16 07:29:03;;;;;;;3.13;2.10;;;19.20;99.90;;;;;;6093363;23;20106;-82
2022/05/16 07:31:29;;;;;;;3.35;2.05;;;19.20;99.90;;;;;;6067695;23;20034;-81
2022/05/16 07:33:55;;;;;;;2.28;1.95;;;19.20;99.90;;;;;;6093412;23;19998;-81
2022/05/16 07:36:21;;;;;;;7.55;2.20;;;19.20;99.90;;;;;;6093475;23;20048;-80
2022/05/16 07:38:46;;;;;;;4.38;2.10;;;19.20;99.90;;;;;;6067525;23;20018;-81
2022/05/16 07:41:12;;;;;;;4.72;2.00;;;19.20;99.90;;;;;;6067669;23;20011;-81
2022/05/16 07:43:38;;;;;;;4.28;2.17;;;19.10;99.90;;;;;;6093395;23;20006;-81
2022/05/16 07:46:04;;;;;;;3.05;2.00;;;19.10;99.90;;;;;;6092901;23;20038;-81
2022/05/16 07:48:31;;;;;;;3.00;1.90;;;19.10;99.90;;;;;;6092800;23;20418;-81
2022/05/16 07:50:57;;;;;;;4.03;2.03;;;19.10;99.90;;;;;;6092849;23;20003;-82
2022/05/16 07:53:23;;;;;;;4.47;2.47;;;19.10;99.90;;;;;;6092848;23;20308;-81
2022/05/16 07:55:54;;;;;;;4.07;2.70;;;19.10;99.90;;;;;;6092438;23;20002;-81
2022/05/16 07:58:20;;;;;;;3.22;1.92;;;19.10;99.90;;;;;;6093164;23;20480;-82
2022/05/16 08:00:49;;;;;;;4.03;2.22;;;19.10;99.90;;;;;;6067247;23;19998;-81
2022/05/16 08:03:15;;;;;;;3.30;2.08;;;19.20;99.90;;;;;;6067132;23;20089;-81
2022/05/16 08:05:42;;;;;;;5.43;2.72;;;19.20;99.90;;;;;;6067249;23;20338;-81
2022/05/16 08:10:53;;;;;;;4.13;2.13;;;19.20;99.90;;;;;;6093034;23;20018;-82
2022/05/16 08:13:19;;;;;;;3.90;2.00;;;19.30;99.90;;;;;;6092698;23;20015;-81
2022/05/16 08:15:45;;;;;;;3.83;2.00;;;19.30;99.90;;;;;;6067060;23;20006;-81
2022/05/16 08:18:12;;;;;;;5.25;2.63;;;19.40;99.90;;;;;;6093025;23;20049;-82
2022/05/16 08:20:42;;;;;;;6.03;2.25;;;19.40;99.90;;;;;;6067060;23;20003;-82
2022/05/16 08:23:10;;;;;;;3.40;2.20;;;19.40;99.90;;;;;;6092552;23;20358;-83
2022/05/16 08:25:35;;;;;;;3.10;2.20;;;19.50;99.90;;;;;;6066821;23;20006;-83
2022/05/16 08:28:01;;;;;;;7.22;2.38;;;19.50;99.90;;;;;;6092492;23;20007;-82
2022/05/16 08:30:28;;;;;;;9.52;2.63;;;19.50;99.90;;;;;;6092769;23;20006;-82
2022/05/16 08:32:57;;;;;;;5.75;2.42;;;19.50;99.90;;;;;;6092766;23;20003;-82
2022/05/16 08:35:23;;;;;;;3.65;2.70;;;19.60;99.90;;;;;;6066852;23;20060;-82
2022/05/16 08:40:53;;;;;;;;;;;19.70;99.90;;;;;;6093379;23;20068;-81
2022/05/16 08:43:31;;;;;;;4.80;2.50;;;19.80;99.90;;;;;;6092783;23;19901;-82
2022/05/16 08:46:55;;;;;;;3.50;2.03;;;19.80;99.90;;;;;;6092814;23;20355;-82
2022/05/16 08:49:37;;;;;;;5.80;2.45;;;19.90;99.90;;;;;;6125266;23;20017;-82
2022/05/16 08:52:29;;;;;;;6.07;2.63;;;20.00;99.90;;;;;;6126071;23;20006;-82
2022/05/16 08:55:08;;;;;;;6.80;2.65;;;20.00;99.90;;;;;;6101344;23;20026;-82
2022/05/16 08:57:46;;;;;;;8.73;2.83;;;20.10;99.90;;;;;;6067940;23;20394;-83
2022/05/16 09:00:21;;;;;;;6.88;2.60;;;20.10;99.90;;;;;;6093853;23;20006;-83
2022/05/16 09:02:50;;;;;;;6.22;2.90;;;20.20;99.90;;;;;;6068133;23;20473;-82
2022/05/16 09:05:32;;;;;;;5.13;2.78;;;20.20;99.90;;;;;;6068094;23;20089;-82
2022/05/16 09:07:59;;;;;;;5.53;2.97;;;20.20;99.90;;;;;;6068238;23;20002;-83
2022/05/16 09:10:42;;;;;;;5.82;2.90;;;20.30;99.90;;;;;;6093404;23;20503;-84
2022/05/16 09:13:23;;;;;;;4.45;2.47;;;20.20;99.90;;;;;;6068078;23;20086;-84
2022/05/16 09:16:09;;;;;;;9.10;2.90;;;20.20;99.90;;;;;;6068126;23;20010;-82
2022/05/16 09:18:49;;;;;;;6.30;3.10;;;20.20;99.90;;;;;;6069403;23;20013;-83
2022/05/16 09:21:37;;;;;;;5.32;2.50;;;20.20;99.90;;;;;;6093991;23;20478;-84
2022/05/16 09:24:10;;;;;;;5.88;2.83;;;20.20;99.90;;;;;;6068145;23;20443;-84
2022/05/16 09:26:58;;;;;;;5.32;2.63;;;20.10;99.90;;;;;;6068059;23;20005;-83
2022/05/16 09:29:32;;;;;;;6.22;2.65;;;20.10;99.90;;;;;;6068074;23;20045;-82
2022/05/16 09:32:38;;;;;;;10.13;2.80;;;20.10;99.90;;;;;;6068073;23;20006;-83
2022/05/16 09:35:12;;;;;;;9.65;2.90;;;20.10;99.90;;;;;;6125057;23;20002;-83
2022/05/16 09:37:38;;;;;;;10.23;3.20;;;20.20;99.90;;;;;;6100486;23;20005;-82
2022/05/16 09:40:05;;;;;;;5.35;2.40;;;20.20;99.90;;;;;;6108042;23;20380;-83
2022/05/16 09:42:35;;;;;;;5.50;2.55;;;20.30;99.90;;;;;;6067831;23;19998;-83
2022/05/16 09:45:12;;;;;;;8.45;3.08;;;20.40;99.90;;;;;;6093425;23;20003;-84
2022/05/16 09:47:40;;;;;;;6.10;2.90;;;20.40;99.90;;;;;;6067864;23;20443;-83
2022/05/16 09:50:11;;;;;;;6.78;2.80;;;20.50;99.90;;;;;;6067610;23;20350;-84
2022/05/16 09:53:09;;;;;;;5.82;2.92;;;20.40;99.90;;;;;;6093766;23;19998;-83
2022/05/16 09:55:54;;;;;;;6.53;3.03;;;20.50;99.90;;;;;;6067764;23;20025;-83
2022/05/16 09:58:24;;;;;;;6.28;3.15;;;20.50;99.90;;;;;;6093557;23;20010;-83
2022/05/16 10:01:04;;;;;;;9.63;3.10;;;20.40;99.90;;;;;;6093715;23;20108;-83
2022/05/16 10:03:43;;;;;;;5.35;2.70;;;20.40;99.90;;;;;;6093685;23;20418;-83
2022/05/16 10:06:26;;;;;;;6.97;2.80;;;20.40;99.90;;;;;;6067585;23;20073;-83
2022/05/16 10:08:52;;;;;;;6.45;2.70;;;20.30;99.90;;;;;;6093319;23;20007;-84
2022/05/16 10:11:20;;;;;;;5.82;2.92;;;20.30;99.90;;;;;;6093343;23;19999;-83
2022/05/16 10:13:46;;;;;;;4.63;2.28;;;20.20;99.90;;;;;;6067821;23;20003;-83
2022/05/16 10:16:12;;;;;;;6.53;2.75;;;20.20;99.90;;;;;;6067599;23;20002;-83
2022/05/16 10:19:19;;;;;;;6.80;3.10;;;20.10;99.90;;;;;;6093322;23;20007;-83
2022/05/16 10:21:52;;;;;;;6.13;2.80;;;20.10;99.90;;;;;;6124769;23;20034;-83
2022/05/16 10:24:19;;;;;;;6.78;2.75;;;20.10;99.90;;;;;;6124868;23;20426;-83
2022/05/16 10:26:47;;;;;;;7.30;2.90;;;20.00;99.90;;;;;;6107809;23;20081;-83
2022/05/16 10:29:19;;;;;;;7.03;2.90;;;20.00;99.90;;;;;;6067700;23;20013;-83
2022/05/16 10:34:40;;;;;;;8.68;2.97;;;19.90;99.90;;;;;;6093942;23;20013;-83
2022/05/16 10:37:06;;;;;;;6.82;2.65;;;19.90;99.90;;;;;;6067705;23;20006;-83
2022/05/16 10:39:35;;;;;;;3.90;2.53;;;19.80;99.90;;;;;;6067582;23;20338;-83
2022/05/16 10:42:15;;;;;;;6.80;2.90;;;19.80;99.90;;;;;;6093828;23;20085;-83
2022/05/16 10:44:58;;;;;;;7.22;2.70;;;19.80;99.90;;;;;;6093270;23;19998;-83
2022/05/16 10:47:37;;;;;;;6.13;3.15;;;19.80;99.90;;;;;;6067748;23;20324;-83
2022/05/16 10:50:08;;;;;;;5.43;2.50;;;19.80;99.90;;;;;;6093158;23;20450;-82
2022/05/16 10:52:44;;;;;;;5.38;2.92;;;19.70;99.90;;;;;;6093149;23;20003;-83
2022/05/16 10:55:10;;;;;;;6.88;3.00;;;19.70;99.90;;;;;;6093761;23;20002;-84
2022/05/16 10:57:57;;;;;;;8.23;2.97;;;19.70;99.90;;;;;;6092998;23;20393;-83
2022/05/16 11:00:50;;;;;;;4.82;2.55;;;19.60;99.90;;;;;;6093424;23;20094;-83
2022/05/16 11:03:30;;;;;;;6.22;2.75;;;19.60;99.90;;;;;;6093193;23;20435;-83
2022/05/16 11:06:08;;;;;;;5.38;2.08;;;19.60;99.90;;;;;;6093444;23;20002;-83
2022/05/16 11:08:45;;;;;;;6.55;2.78;;;19.60;99.90;;;;;;6067609;23;20038;-84
2022/05/16 11:11:25;;;;;;;6.32;2.40;;;19.50;99.90;;;;;;6092885;23;20005;-84
2022/05/16 11:14:04;;;;;;;6.70;2.42;;;19.50;99.90;;;;;;6093363;23;20003;-83
2022/05/16 11:16:35;;;;;;;7.38;2.25;;;19.50;99.90;;;;;;6067418;23;20007;-82
2022/05/16 11:19:07;;;;;;;8.25;2.50;;;19.50;99.90;;;;;;6092952;23;20003;-83
2022/05/16 11:21:51;;;;;;;5.65;2.25;;;19.50;99.90;;;;;;6092914;23;20003;-84
2022/05/16 11:24:20;;;;;;;7.00;2.35;;;19.50;99.90;;;;;;6067540;23;20010;-84
2022/05/16 11:27:04;;;;;;;9.63;2.40;;;19.50;99.90;;;;;;6092941;23;20505;-83
2022/05/16 11:29:57;;;;;;;6.50;2.40;;;19.50;99.90;;;;;;6067210;23;20410;-84
2022/05/16 11:32:49;;;;;;;6.45;2.45;;;19.50;99.90;;;;;;6092944;23;20029;-85
2022/05/16 11:35:39;;;;;;;5.78;2.28;;;19.50;99.90;;;;;;6067254;23;20041;-84
2022/05/16 11:38:29;;;;;;;6.53;2.17;;;19.40;99.90;;;;;;6067376;23;20009;-84
2022/05/16 11:41:07;;;;;;;5.00;2.20;;;19.40;99.90;;;;;;6108338;23;20414;-83
2022/05/16 11:43:37;;;;;;;5.93;2.13;;;19.30;99.90;;;;;;6092814;23;19999;-84
2022/05/16 11:46:37;;;;;;;6.95;1.98;;;19.30;99.90;;;;;;6093086;23;19999;-84
2022/05/16 11:49:21;;;;;;;8.05;2.15;;;19.30;99.90;;;;;;6092645;23;20006;-83
2022/05/16 11:52:13;;;;;;;9.45;2.67;;;19.30;99.90;;;;;;6092722;23;20374;-82
2022/05/16 11:54:49;;;;;;;10.23;2.35;;;19.30;99.90;;;;;;6092652;23;20026;-82
2022/05/16 12:00:32;;;;;;;8.57;2.38;;;19.20;99.90;;;;;;6093022;23;20057;-83
2022/05/16 12:03:07;;;;;;;5.38;2.05;;;19.20;99.90;;;;;;6067190;23;20036;-83
2022/05/16 12:05:40;;;;;;;7.18;2.22;;;19.20;99.90;;;;;;6067344;23;20343;-83
2022/05/16 12:08:31;;;;;;;7.87;2.67;;;19.20;99.90;;;;;;6092821;23;20437;-83
2022/05/16 12:11:26;;;;;;;6.22;2.03;;;19.20;99.90;;;;;;6067298;23;20457;-83
2022/05/16 12:14:01;;;;;;;9.60;2.20;;;19.20;99.90;;;;;;6095548;23;19999;-83
2022/05/16 12:16:36;;;;;;;4.35;1.90;;;19.20;99.90;;;;;;6067205;23;20003;-83
2022/05/16 12:19:39;;;;;;;6.18;2.05;;;19.20;99.90;;;;;;6093181;23;20427;-83
2022/05/16 12:22:08;;;;;;;7.68;2.28;;;19.20;99.90;;;;;;6067647;23;20010;-83
2022/05/16 12:24:52;;;;;;;4.75;2.13;;;19.20;99.90;;;;;;6068351;23;20160;-83
2022/05/16 12:27:48;;;;;;;6.85;2.40;;;19.30;99.90;;;;;;6068468;23;20010;-82
2022/05/16 12:30:35;;;;;;;8.15;2.38;;;19.30;99.90;;;;;;6074969;23;20097;-81
2022/05/16 12:33:01;;;;;;;8.32;2.22;;;19.40;99.90;;;;;;6067972;23;20007;-82
2022/05/16 12:35:27;;;;;;;4.57;2.10;;;19.40;99.90;;;;;;6068202;23;20538;-82
2022/05/16 12:37:54;;;;;;;4.28;1.85;;;19.40;99.90;;;;;;6068300;23;20034;-82
2022/05/16 12:40:38;;;;;;;11.20;2.63;;;19.40;99.90;;;;;;6068272;23;20565;-82
2022/05/16 12:43:49;;;;;;;5.93;2.30;;;19.50;99.90;;;;;;6068463;23;20002;-83
2022/05/16 12:46:40;;;;;;;4.72;1.98;;;19.50;99.90;;;;;;6069437;23;20386;-82
2022/05/16 12:49:05;;;;;;;8.18;2.20;;;19.60;99.90;;;;;;6068129;23;20007;-83
2022/05/16 12:51:46;;;;;;;6.78;1.95;;;19.60;99.90;;;;;;6068317;23;20081;-82
2022/05/16 12:54:26;;;;;;;5.45;2.05;;;19.70;99.90;;;;;;6068194;23;20014;-82
2022/05/16 12:56:55;;;;;;;4.88;2.10;;;19.70;99.90;;;;;;6096896;23;20033;-82
2022/05/16 12:59:51;;;;;;;6.85;1.83;;;19.70;99.90;;;;;;6101916;23;20006;-82
2022/05/16 13:02:42;;;;;;;3.85;1.83;;;19.70;99.90;;;;;;6071626;23;20011;-82
2022/05/16 13:05:28;;;;;;;5.18;1.95;;;19.70;99.90;;;;;;6068316;23;20006;-82
2022/05/16 13:08:03;;;;;;;5.55;2.00;;;19.80;99.90;;;;;;6093404;23;20013;-82
2022/05/16 13:11:00;;;;;;;9.02;2.15;;;19.80;99.90;;;;;;6093506;23;20057;-81
2022/05/16 13:14:03;;;;;;;5.43;1.83;;;19.80;99.90;;;;;;6068206;23;20010;-83
2022/05/16 13:16:30;;;;;;;5.13;1.90;;;19.80;99.90;;;;;;6068105;23;20011;-82
2022/05/16 13:19:03;;;;;;;4.80;2.05;;;19.80;99.90;;;;;;6093688;23;20017;-82
2022/05/16 13:21:34;;;;;;;4.03;1.63;;;19.80;99.90;;;;;;6068071;23;20072;-84
2022/05/16 13:24:00;;;;;;;2.63;1.42;;;19.90;99.90;;;;;;6093676;23;20033;-83
2022/05/16 13:29:23;;;;;;;7.00;2.15;;;20.00;99.90;;;;;;6093574;23;20377;-82
2022/05/16 13:31:52;;;;;;;6.90;2.00;;;20.10;99.90;;;;;;6068060;23;20029;-85
2022/05/16 13:34:55;;;;;;;10.32;1.95;;;20.10;99.90;;;;;;6093256;23;20008;-83
2022/05/16 13:37:40;;;;;;;8.43;2.08;;;20.10;99.90;;;;;;6109898;23;20006;-82
2022/05/16 13:40:09;;;;;;;3.92;1.77;;;20.20;99.90;;;;;;6068222;23;20038;-85
2022/05/16 13:42:37;;;;;;;4.32;1.92;;;20.30;99.90;;;;;;6068002;23;20350;-83
2022/05/16 13:45:05;;;;;;;5.28;2.17;;;20.30;99.90;;;;;;6093820;23;20030;-82